Time;durP1;ratioP1;P1;durP2;ratioP2;P2;SDS_P1;SDS_P2;PMS_P1;PMS_P2;Temp;Humidity;BMP_temperature;BMP_pressure;BME280_temperature;BME280_humidity;BME280_pressure;Samples;Min_cycle;Max_cycle;Signal;HPM_P1;HPM_P2
2023/08/15 00:00:06;;;;;;;6.72;3.00;;;;;;;;;;4996395;28;98521;-78
2023/08/15 00:02:33;;;;;;;7.57;3.10;;;;;;;;;;4992239;28;100754;-80
2023/08/15 00:04:59;;;;;;;6.47;3.38;;;;;;;;;;4993704;28;101609;-80
2023/08/15 00:07:26;;;;;;;10.05;3.40;;;;;;;;;;4993061;28;98642;-80
2023/08/15 00:09:52;;;;;;;8.18;3.50;;;;;;;;;;4993800;28;100184;-81
2023/08/15 00:12:19;;;;;;;5.00;3.20;;;;;;;;;;4984944;28;100461;-81
2023/08/15 00:14:45;;;;;;;6.70;3.00;;;;;;;;;;4999257;28;98601;-80
2023/08/15 00:17:12;;;;;;;9.90;3.67;;;;;;;;;;4995170;28;100551;-80
2023/08/15 00:19:39;;;;;;;9.18;3.05;;;;;;;;;;4991369;28;98649;-80
2023/08/15 00:22:05;;;;;;;11.10;3.45;;;;;;;;;;4981607;28;100262;-80
2023/08/15 00:24:31;;;;;;;8.25;2.97;;;;;;;;;;4995544;28;99462;-80
2023/08/15 00:26:58;;;;;;;16.48;3.75;;;;;;;;;;4989482;28;100031;-81
2023/08/15 00:29:24;;;;;;;6.55;2.97;;;;;;;;;;4996097;28;100601;-81
2023/08/15 00:31:51;;;;;;;6.10;2.70;;;;;;;;;;5000030;28;100545;-81
2023/08/15 00:34:18;;;;;;;9.27;3.17;;;;;;;;;;4997194;28;99014;-82
2023/08/15 00:36:44;;;;;;;6.90;3.15;;;;;;;;;;5003808;28;100644;-81
2023/08/15 00:39:10;;;;;;;9.52;3.28;;;;;;;;;;5003617;28;98503;-82
2023/08/15 00:41:37;;;;;;;5.72;3.20;;;;;;;;;;4993479;28;100792;-82
2023/08/15 00:44:03;;;;;;;13.50;3.63;;;;;;;;;;4993607;28;100607;-82
2023/08/15 00:46:30;;;;;;;9.27;3.20;;;;;;;;;;4988627;28;98412;-77
2023/08/15 00:48:57;;;;;;;13.15;3.72;;;;;;;;;;4996456;28;99597;-80
2023/08/15 00:51:23;;;;;;;9.40;3.70;;;;;;;;;;4995465;28;100335;-82
2023/08/15 00:53:50;;;;;;;13.45;3.42;;;;;;;;;;4988886;28;99425;-82
2023/08/15 00:56:17;;;;;;;5.45;3.28;;;;;;;;;;4998939;28;100228;-81
2023/08/15 00:58:44;;;;;;;8.80;3.40;;;;;;;;;;4996796;28;100858;-83
2023/08/15 01:01:21;;;;;;;7.93;3.67;;;;;;;;;;4995292;28;100285;-82
2023/08/15 01:03:49;;;;;;;11.50;4.15;;;;;;;;;;4985861;28;100597;-80
2023/08/15 01:06:15;;;;;;;14.90;4.05;;;;;;;;;;4992557;28;98938;-81
2023/08/15 01:08:42;;;;;;;9.40;3.10;;;;;;;;;;4988603;28;100207;-80
2023/08/15 01:11:08;;;;;;;11.52;3.70;;;;;;;;;;4987755;28;98797;-82
2023/08/15 01:13:59;;;;;;;7.07;3.85;;;;;;;;;;4997860;28;98727;-77
2023/08/15 01:16:28;;;;;;;8.00;3.55;;;;;;;;;;4985527;28;99450;-79
2023/08/15 01:18:57;;;;;;;9.05;3.50;;;;;;;;;;4992989;28;101424;-79
2023/08/15 01:21:27;;;;;;;7.78;3.15;;;;;;;;;;4997229;28;99490;-79
2023/08/15 01:23:54;;;;;;;9.98;3.20;;;;;;;;;;4986667;28;99579;-81
2023/08/15 01:26:20;;;;;;;8.00;3.22;;;;;;;;;;4990007;28;98926;-79
2023/08/15 01:28:52;;;;;;;11.23;3.63;;;;;;;;;;4995424;28;100756;-79
2023/08/15 01:31:19;;;;;;;6.20;2.60;;;;;;;;;;4989216;28;100608;-80
2023/08/15 01:33:48;;;;;;;11.30;3.33;;;;;;;;;;4993493;28;98596;-81
2023/08/15 01:36:16;;;;;;;8.93;2.63;;;;;;;;;;4995114;28;100554;-78
2023/08/15 01:38:47;;;;;;;7.28;2.53;;;;;;;;;;4990357;28;100580;-80
2023/08/15 01:41:19;;;;;;;11.40;3.05;;;;;;;;;;5001494;28;98772;-79
2023/08/15 01:43:46;;;;;;;6.95;2.58;;;;;;;;;;4994301;28;101249;-83
2023/08/15 01:46:13;;;;;;;7.57;2.67;;;;;;;;;;4987739;28;98803;-84
2023/08/15 01:48:41;;;;;;;8.10;2.72;;;;;;;;;;4989211;28;100972;-85
2023/08/15 01:51:08;;;;;;;5.25;2.33;;;;;;;;;;4993105;28;100443;-85
2023/08/15 01:53:36;;;;;;;8.95;2.33;;;;;;;;;;4994203;28;98501;-81
2023/08/15 01:56:02;;;;;;;7.10;2.33;;;;;;;;;;5000119;28;99115;-83
2023/08/15 01:58:29;;;;;;;6.63;2.10;;;;;;;;;;4991025;28;100579;-84
2023/08/15 02:00:55;;;;;;;11.90;3.03;;;;;;;;;;4991240;28;98261;-82
2023/08/15 02:03:22;;;;;;;8.85;2.55;;;;;;;;;;4989112;28;98879;-82
2023/08/15 02:05:48;;;;;;;5.22;2.03;;;;;;;;;;4992133;28;98646;-82
2023/08/15 02:08:15;;;;;;;6.70;2.08;;;;;;;;;;4989546;28;100960;-81
2023/08/15 02:10:41;;;;;;;8.13;2.50;;;;;;;;;;4991130;28;99513;-85
2023/08/15 02:13:08;;;;;;;7.53;2.35;;;;;;;;;;4990638;28;98599;-83
2023/08/15 02:15:34;;;;;;;6.80;2.33;;;;;;;;;;4989984;28;99140;-84
2023/08/15 02:18:00;;;;;;;10.07;3.00;;;;;;;;;;4986938;28;100980;-85
2023/08/15 02:20:28;;;;;;;9.02;2.53;;;;;;;;;;4990654;28;99007;-85
2023/08/15 02:22:55;;;;;;;6.10;2.10;;;;;;;;;;4987029;28;100211;-80
2023/08/15 02:25:21;;;;;;;8.73;2.78;;;;;;;;;;4994312;28;100164;-79
2023/08/15 02:27:47;;;;;;;8.63;2.58;;;;;;;;;;4998560;28;99321;-79
2023/08/15 02:30:14;;;;;;;9.35;3.10;;;;;;;;;;4991751;28;100849;-80
2023/08/15 02:32:40;;;;;;;7.60;2.55;;;;;;;;;;4992553;28;99597;-81
2023/08/15 02:35:07;;;;;;;12.60;2.95;;;;;;;;;;4987050;28;99902;-82
2023/08/15 02:37:34;;;;;;;8.10;2.70;;;;;;;;;;4987666;28;100507;-81
2023/08/15 02:40:00;;;;;;;8.43;2.67;;;;;;;;;;4984263;28;98825;-81
2023/08/15 02:42:27;;;;;;;10.00;2.33;;;;;;;;;;4991275;28;99486;-81
2023/08/15 02:44:53;;;;;;;8.50;2.60;;;;;;;;;;4985278;28;100438;-82
2023/08/15 02:47:20;;;;;;;10.50;2.60;;;;;;;;;;4989782;28;98894;-83
2023/08/15 02:49:47;;;;;;;9.00;2.70;;;;;;;;;;4982275;28;100519;-83
2023/08/15 02:52:13;;;;;;;12.35;2.92;;;;;;;;;;4987260;28;99018;-82
2023/08/15 02:54:41;;;;;;;8.75;2.90;;;;;;;;;;4992839;28;100569;-82
2023/08/15 02:57:08;;;;;;;10.30;2.60;;;;;;;;;;4994845;28;101476;-82
2023/08/15 02:59:34;;;;;;;5.80;2.35;;;;;;;;;;4987661;28;100339;-78
2023/08/15 03:02:01;;;;;;;9.20;2.75;;;;;;;;;;4983622;28;100443;-80
2023/08/15 03:04:27;;;;;;;13.85;3.60;;;;;;;;;;4995719;28;100931;-80
2023/08/15 03:06:54;;;;;;;12.93;3.15;;;;;;;;;;5003014;28;98423;-80
2023/08/15 03:09:20;;;;;;;11.45;2.95;;;;;;;;;;5000018;28;99259;-78
2023/08/15 03:11:46;;;;;;;12.57;3.47;;;;;;;;;;4991510;28;100000;-78
2023/08/15 03:14:13;;;;;;;17.13;4.25;;;;;;;;;;4992385;28;99868;-78
2023/08/15 03:16:39;;;;;;;13.85;3.65;;;;;;;;;;4991732;28;99505;-78
2023/08/15 03:19:06;;;;;;;12.85;3.60;;;;;;;;;;4992278;28;98513;-77
2023/08/15 03:21:32;;;;;;;16.45;4.00;;;;;;;;;;5000988;28;99230;-77
2023/08/15 03:23:58;;;;;;;15.18;3.70;;;;;;;;;;4992628;28;99313;-78
2023/08/15 03:26:27;;;;;;;11.25;3.53;;;;;;;;;;4999966;28;98863;-79
2023/08/15 03:28:54;;;;;;;11.75;3.42;;;;;;;;;;4993619;28;100583;-79
2023/08/15 03:31:21;;;;;;;13.18;4.28;;;;;;;;;;4993615;28;99872;-78
2023/08/15 03:33:47;;;;;;;14.07;4.18;;;;;;;;;;5000438;28;100271;-78
2023/08/15 03:36:14;;;;;;;14.45;4.03;;;;;;;;;;4996071;28;99439;-83
2023/08/15 03:38:43;;;;;;;15.63;4.47;;;;;;;;;;4979098;28;97961;-83
2023/08/15 03:41:09;;;;;;;15.30;4.88;;;;;;;;;;4986820;28;100461;-84
2023/08/15 03:43:36;;;;;;;13.90;4.28;;;;;;;;;;4996798;28;100467;-83
2023/08/15 03:46:03;;;;;;;14.23;3.97;;;;;;;;;;4992721;28;99760;-84
2023/08/15 03:48:32;;;;;;;11.18;4.10;;;;;;;;;;4993957;28;100344;-81
2023/08/15 03:50:59;;;;;;;10.57;3.80;;;;;;;;;;4997929;28;102669;-79
2023/08/15 03:53:26;;;;;;;13.27;4.22;;;;;;;;;;4993370;28;98994;-79
2023/08/15 03:55:54;;;;;;;21.45;5.53;;;;;;;;;;4992337;28;99793;-79
2023/08/15 03:58:21;;;;;;;15.98;4.47;;;;;;;;;;4989582;28;98509;-81
2023/08/15 04:00:47;;;;;;;12.70;4.00;;;;;;;;;;4998514;28;98562;-81
2023/08/15 04:03:14;;;;;;;17.67;4.70;;;;;;;;;;4995334;28;99808;-81
2023/08/15 04:05:47;;;;;;;17.50;4.38;;;;;;;;;;5009476;28;98502;-81
2023/08/15 04:08:14;;;;;;;15.25;4.70;;;;;;;;;;4998689;28;103429;-81
2023/08/15 04:10:40;;;;;;;14.05;4.45;;;;;;;;;;5006602;28;101290;-80
2023/08/15 04:13:07;;;;;;;14.43;4.07;;;;;;;;;;5003934;28;98830;-80
2023/08/15 04:15:35;;;;;;;14.85;4.25;;;;;;;;;;4999690;28;99337;-80
2023/08/15 04:18:02;;;;;;;16.55;4.38;;;;;;;;;;4994535;28;100114;-81
2023/08/15 04:20:28;;;;;;;23.02;4.82;;;;;;;;;;4995761;28;99518;-80
2023/08/15 04:22:55;;;;;;;21.17;5.07;;;;;;;;;;5003587;28;99422;-81
2023/08/15 04:25:21;;;;;;;24.65;5.10;;;;;;;;;;5002705;28;98510;-80
2023/08/15 04:27:48;;;;;;;18.48;4.35;;;;;;;;;;5008403;28;97978;-81
2023/08/15 04:30:14;;;;;;;13.40;3.75;;;;;;;;;;4996612;28;100315;-78
2023/08/15 04:32:41;;;;;;;12.35;3.60;;;;;;;;;;4997667;28;98483;-78
2023/08/15 04:35:08;;;;;;;14.00;4.28;;;;;;;;;;4997206;28;101565;-79
2023/08/15 04:37:34;;;;;;;11.82;3.90;;;;;;;;;;4995872;28;98648;-78
2023/08/15 04:40:01;;;;;;;22.73;4.40;;;;;;;;;;4996939;28;99187;-78
2023/08/15 04:42:27;;;;;;;16.52;4.47;;;;;;;;;;5002392;28;99269;-78
2023/08/15 04:44:53;;;;;;;15.70;4.43;;;;;;;;;;4989514;28;98546;-79
2023/08/15 04:47:20;;;;;;;19.17;4.57;;;;;;;;;;5000810;28;99238;-82
2023/08/15 04:49:47;;;;;;;24.33;4.82;;;;;;;;;;4973952;28;100898;-81
2023/08/15 04:52:16;;;;;;;17.23;4.13;;;;;;;;;;4994492;28;97827;-87
2023/08/15 04:54:42;;;;;;;25.08;4.68;;;;;;;;;;4992179;28;99617;-86
2023/08/15 04:57:08;;;;;;;16.75;4.28;;;;;;;;;;4990793;28;100666;-85
2023/08/15 04:59:35;;;;;;;21.33;5.07;;;;;;;;;;4986748;28;100813;-85
2023/08/15 05:02:01;;;;;;;18.73;4.35;;;;;;;;;;4991461;28;103451;-85
2023/08/15 05:04:28;;;;;;;24.40;4.85;;;;;;;;;;4994354;28;98798;-83
2023/08/15 05:06:54;;;;;;;16.27;5.10;;;;;;;;;;4990151;28;100289;-84
2023/08/15 05:09:21;;;;;;;21.25;4.70;;;;;;;;;;4982228;28;100639;-85
2023/08/15 05:11:47;;;;;;;16.75;4.53;;;;;;;;;;4993710;28;98699;-82
2023/08/15 05:14:15;;;;;;;16.25;4.93;;;;;;;;;;4987009;28;100629;-86
2023/08/15 05:16:41;;;;;;;16.75;4.45;;;;;;;;;;4982916;28;99960;-88
2023/08/15 05:19:07;;;;;;;12.50;4.25;;;;;;;;;;4994800;28;98482;-89
2023/08/15 05:21:34;;;;;;;19.10;4.95;;;;;;;;;;4994022;28;100446;-88
2023/08/15 05:24:00;;;;;;;14.95;4.50;;;;;;;;;;4994325;28;99178;-89
2023/08/15 05:26:27;;;;;;;16.13;5.20;;;;;;;;;;4990590;28;101308;-84
2023/08/15 05:28:53;;;;;;;22.40;4.88;;;;;;;;;;4985259;28;100557;-79
2023/08/15 05:31:19;;;;;;;21.23;4.80;;;;;;;;;;4993617;28;98597;-85
2023/08/15 05:33:47;;;;;;;22.38;4.93;;;;;;;;;;4993326;28;102942;-88
2023/08/15 05:36:13;;;;;;;11.48;3.88;;;;;;;;;;4998852;28;100448;-85
2023/08/15 05:38:40;;;;;;;19.05;4.13;;;;;;;;;;5000290;28;98606;-83
2023/08/15 05:41:07;;;;;;;21.38;4.20;;;;;;;;;;4990131;28;99743;-89
2023/08/15 05:43:34;;;;;;;16.75;4.68;;;;;;;;;;4987712;28;98492;-85
2023/08/15 05:46:00;;;;;;;19.58;4.40;;;;;;;;;;4990123;28;100267;-89
2023/08/15 05:48:28;;;;;;;19.60;4.53;;;;;;;;;;4985700;28;101453;-88
2023/08/15 05:50:55;;;;;;;17.08;3.42;;;;;;;;;;4985208;28;100446;-87
2023/08/15 05:53:21;;;;;;;20.17;3.88;;;;;;;;;;4998288;28;100365;-90
2023/08/15 05:55:47;;;;;;;28.33;4.80;;;;;;;;;;4993790;28;100534;-90
2023/08/15 05:58:14;;;;;;;12.45;3.90;;;;;;;;;;4996806;28;98918;-89
2023/08/15 06:00:41;;;;;;;20.00;4.00;;;;;;;;;;5002949;28;102369;-89
2023/08/15 06:03:07;;;;;;;14.43;4.03;;;;;;;;;;4992421;28;98451;-90
2023/08/15 06:05:34;;;;;;;16.48;4.13;;;;;;;;;;4992870;28;100349;-89
2023/08/15 06:08:00;;;;;;;21.48;4.70;;;;;;;;;;4992277;28;99607;-89
2023/08/15 06:10:26;;;;;;;23.40;3.88;;;;;;;;;;4994746;28;98663;-88
2023/08/15 06:12:53;;;;;;;21.98;4.07;;;;;;;;;;4993610;28;100275;-88
2023/08/15 06:15:19;;;;;;;18.50;5.07;;;;;;;;;;4986462;28;100920;-89
2023/08/15 06:17:45;;;;;;;21.63;4.32;;;;;;;;;;4993712;28;98580;-89
2023/08/15 06:20:12;;;;;;;19.63;4.30;;;;;;;;;;5000228;28;100508;-90
2023/08/15 06:22:38;;;;;;;18.27;4.10;;;;;;;;;;4994246;28;100606;-89
2023/08/15 06:25:05;;;;;;;18.88;5.10;;;;;;;;;;4988001;28;100309;-88
2023/08/15 06:27:31;;;;;;;16.05;4.75;;;;;;;;;;4989838;28;100823;-90
2023/08/15 06:29:58;;;;;;;24.38;4.60;;;;;;;;;;4996943;28;97958;-90
2023/08/15 06:32:28;;;;;;;16.10;3.40;;;;;;;;;;4994441;28;99598;-90
2023/08/15 06:34:54;;;;;;;21.55;4.00;;;;;;;;;;4993104;28;100578;-87
2023/08/15 06:37:21;;;;;;;10.05;3.35;;;;;;;;;;4980189;28;99381;-89
2023/08/15 06:39:48;;;;;;;17.60;4.22;;;;;;;;;;4994193;28;101487;-89
2023/08/15 06:42:14;;;;;;;20.58;3.88;;;;;;;;;;5000889;28;103741;-87
2023/08/15 06:44:41;;;;;;;13.05;3.53;;;;;;;;;;4998990;28;98968;-90
2023/08/15 06:47:07;;;;;;;19.17;3.72;;;;;;;;;;4985301;28;98889;-89
2023/08/15 06:49:34;;;;;;;22.15;4.28;;;;;;;;;;4992963;28;98957;-88
2023/08/15 06:52:00;;;;;;;23.90;4.68;;;;;;;;;;4997953;28;99912;-88
2023/08/15 06:54:27;;;;;;;14.30;4.95;;;;;;;;;;5004806;28;100106;-88
2023/08/15 06:56:53;;;;;;;16.88;3.58;;;;;;;;;;4994825;28;98582;-88
2023/08/15 06:59:23;;;;;;;16.42;4.32;;;;;;;;;;5001511;28;100209;-89
2023/08/15 07:01:52;;;;;;;20.98;4.45;;;;;;;;;;5000050;28;101415;-88
2023/08/15 07:04:18;;;;;;;19.83;4.55;;;;;;;;;;5006445;28;98578;-87
2023/08/15 07:06:45;;;;;;;21.40;4.03;;;;;;;;;;5000011;28;100323;-89
2023/08/15 07:09:11;;;;;;;16.13;4.05;;;;;;;;;;4997032;28;98504;-87
2023/08/15 07:11:38;;;;;;;16.83;4.07;;;;;;;;;;5000971;28;100249;-87
2023/08/15 07:14:05;;;;;;;17.60;4.40;;;;;;;;;;4990406;28;100796;-87
2023/08/15 07:16:31;;;;;;;20.35;4.50;;;;;;;;;;4998748;28;98908;-87
2023/08/15 07:18:58;;;;;;;17.63;4.10;;;;;;;;;;5001339;28;100321;-88
2023/08/15 07:21:24;;;;;;;20.40;4.30;;;;;;;;;;4991500;28;100434;-87
2023/08/15 07:23:54;;;;;;;17.80;4.50;;;;;;;;;;5000402;28;99010;-87
2023/08/15 07:26:20;;;;;;;15.18;4.15;;;;;;;;;;5003536;28;100399;-87
2023/08/15 07:28:47;;;;;;;16.75;3.83;;;;;;;;;;5005729;28;100467;-88
2023/08/15 07:31:15;;;;;;;24.52;4.82;;;;;;;;;;5000600;28;100724;-88
2023/08/15 07:33:42;;;;;;;14.07;3.63;;;;;;;;;;4991592;28;100811;-87
2023/08/15 07:36:08;;;;;;;18.75;3.88;;;;;;;;;;4996699;28;98525;-88
2023/08/15 07:38:34;;;;;;;20.02;4.45;;;;;;;;;;4994935;28;100350;-87
2023/08/15 07:41:02;;;;;;;14.30;3.70;;;;;;;;;;4995810;28;101102;-87
2023/08/15 07:43:29;;;;;;;22.52;4.35;;;;;;;;;;4998018;28;97801;-88
2023/08/15 07:45:55;;;;;;;16.55;3.80;;;;;;;;;;5002814;28;99543;-88
2023/08/15 07:48:22;;;;;;;12.05;4.07;;;;;;;;;;5003858;28;102348;-88
2023/08/15 07:50:48;;;;;;;16.17;4.05;;;;;;;;;;4993221;28;101869;-86
2023/08/15 07:53:15;;;;;;;22.65;3.70;;;;;;;;;;4994279;28;100859;-90
2023/08/15 07:55:42;;;;;;;17.20;3.47;;;;;;;;;;5002701;28;98456;-87
2023/08/15 07:58:08;;;;;;;16.33;3.10;;;;;;;;;;5002892;28;99105;-89
2023/08/15 08:00:34;;;;;;;20.17;4.80;;;;;;;;;;4996817;28;100581;-88
2023/08/15 08:03:01;;;;;;;19.00;4.20;;;;;;;;;;5002083;28;101445;-88
2023/08/15 08:05:28;;;;;;;15.00;4.40;;;;;;;;;;4991052;28;100391;-88
2023/08/15 08:07:58;;;;;;;11.75;3.88;;;;;;;;;;4996310;28;99679;-87
2023/08/15 08:10:25;;;;;;;20.70;4.32;;;;;;;;;;5002593;28;98748;-88
2023/08/15 08:12:51;;;;;;;17.80;5.10;;;;;;;;;;4991746;28;100833;-88
2023/08/15 08:15:18;;;;;;;16.05;4.78;;;;;;;;;;4991302;28;99330;-88
2023/08/15 08:17:45;;;;;;;18.05;4.13;;;;;;;;;;4995271;28;101007;-85
2023/08/15 08:20:16;;;;;;;12.35;4.10;;;;;;;;;;4991291;28;103514;-85
2023/08/15 08:22:42;;;;;;;16.25;4.70;;;;;;;;;;4998568;28;99440;-83
2023/08/15 08:25:16;;;;;;;12.32;4.30;;;;;;;;;;4998041;28;100170;-89
2023/08/15 08:27:44;;;;;;;14.45;4.18;;;;;;;;;;4999233;28;100686;-88
2023/08/15 08:30:11;;;;;;;15.90;4.25;;;;;;;;;;4998917;28;98654;-88
2023/08/15 08:32:37;;;;;;;17.38;4.28;;;;;;;;;;4988196;28;100312;-89
2023/08/15 08:35:05;;;;;;;8.98;3.80;;;;;;;;;;4984284;28;98771;-86
2023/08/15 08:37:32;;;;;;;11.93;3.95;;;;;;;;;;5000185;28;100640;-89
2023/08/15 08:39:58;;;;;;;13.68;3.25;;;;;;;;;;5005903;28;101729;-88
2023/08/15 08:42:25;;;;;;;13.25;3.72;;;;;;;;;;4995139;28;98765;-88
2023/08/15 08:44:52;;;;;;;15.88;3.92;;;;;;;;;;4996160;28;100225;-89
2023/08/15 08:47:20;;;;;;;11.55;3.75;;;;;;;;;;5002328;28;100824;-89
2023/08/15 08:49:47;;;;;;;11.18;3.60;;;;;;;;;;5001140;28;98769;-89
2023/08/15 08:52:15;;;;;;;12.88;3.75;;;;;;;;;;4995122;28;100548;-89
2023/08/15 08:54:41;;;;;;;10.85;4.10;;;;;;;;;;4994879;28;99906;-88
2023/08/15 08:57:12;;;;;;;18.63;3.97;;;;;;;;;;4988341;28;103604;-86
2023/08/15 08:59:40;;;;;;;13.93;3.95;;;;;;;;;;4997122;28;100038;-88
2023/08/15 09:02:09;;;;;;;15.60;4.07;;;;;;;;;;4983584;28;99466;-88
2023/08/15 09:04:35;;;;;;;11.30;3.45;;;;;;;;;;4992055;28;100244;-88
2023/08/15 09:07:02;;;;;;;9.85;3.63;;;;;;;;;;4997821;28;100968;-87
2023/08/15 09:09:28;;;;;;;9.20;3.60;;;;;;;;;;4985207;28;99103;-88
2023/08/15 09:11:55;;;;;;;10.70;3.88;;;;;;;;;;4981605;28;100205;-88
2023/08/15 09:14:22;;;;;;;12.70;3.35;;;;;;;;;;4991222;28;103717;-88
2023/08/15 09:16:49;;;;;;;15.82;4.72;;;;;;;;;;4993440;28;98580;-88
2023/08/15 09:19:15;;;;;;;11.77;4.82;;;;;;;;;;4991464;28;100887;-88
2023/08/15 09:21:42;;;;;;;16.50;5.35;;;;;;;;;;4989311;28;98021;-89
2023/08/15 09:24:09;;;;;;;9.43;5.47;;;;;;;;;;4989187;28;99813;-88
2023/08/15 09:26:37;;;;;;;11.10;5.22;;;;;;;;;;4997387;28;100587;-88
2023/08/15 09:29:04;;;;;;;13.25;5.53;;;;;;;;;;4994098;28;99192;-87
2023/08/15 09:31:30;;;;;;;17.02;5.25;;;;;;;;;;4990786;28;100982;-88
2023/08/15 09:33:57;;;;;;;10.82;5.72;;;;;;;;;;4999991;28;100673;-88
2023/08/15 09:36:24;;;;;;;8.82;5.28;;;;;;;;;;4998191;28;101334;-89
2023/08/15 09:38:53;;;;;;;14.38;5.20;;;;;;;;;;4999897;28;100255;-86
2023/08/15 09:41:23;;;;;;;8.80;4.97;;;;;;;;;;4984558;28;98455;-88
2023/08/15 09:43:52;;;;;;;14.88;5.22;;;;;;;;;;4988384;28;100546;-87
2023/08/15 09:46:20;;;;;;;16.67;5.35;;;;;;;;;;4987228;28;102616;-88
2023/08/15 09:48:47;;;;;;;16.98;5.10;;;;;;;;;;4989856;28;98490;-89
2023/08/15 09:51:18;;;;;;;10.32;5.07;;;;;;;;;;4988734;28;100253;-88
2023/08/15 09:53:46;;;;;;;11.30;4.88;;;;;;;;;;5000632;28;101231;-89
2023/08/15 09:56:12;;;;;;;15.60;6.00;;;;;;;;;;4997225;28;98630;-88
2023/08/15 09:58:39;;;;;;;18.73;5.80;;;;;;;;;;4998507;28;100693;-86
2023/08/15 10:01:07;;;;;;;13.35;4.80;;;;;;;;;;5000870;28;98550;-87
2023/08/15 10:03:40;;;;;;;15.63;4.38;;;;;;;;;;4988638;28;100303;-88
2023/08/15 10:06:10;;;;;;;14.70;4.45;;;;;;;;;;4993559;28;100698;-88
2023/08/15 10:08:40;;;;;;;8.68;3.95;;;;;;;;;;4984277;28;99227;-87
2023/08/15 10:11:09;;;;;;;8.80;3.90;;;;;;;;;;4999487;28;102535;-88
2023/08/15 10:13:36;;;;;;;10.48;3.80;;;;;;;;;;5002043;28;100292;-88
2023/08/15 10:16:04;;;;;;;12.05;3.92;;;;;;;;;;4984055;28;98586;-88
2023/08/15 10:18:34;;;;;;;13.88;4.00;;;;;;;;;;4991142;28;102255;-88
2023/08/15 10:21:00;;;;;;;11.25;3.72;;;;;;;;;;4989930;28;100650;-88
2023/08/15 10:23:31;;;;;;;12.68;4.03;;;;;;;;;;5002447;28;100438;-88
2023/08/15 10:25:58;;;;;;;11.00;3.88;;;;;;;;;;4989675;28;99931;-88
2023/08/15 10:28:29;;;;;;;12.60;3.40;;;;;;;;;;4984188;28;98947;-88
2023/08/15 10:30:55;;;;;;;16.65;3.95;;;;;;;;;;4989531;28;100306;-87
2023/08/15 10:33:26;;;;;;;9.13;3.42;;;;;;;;;;4989054;28;100818;-88
2023/08/15 10:35:55;;;;;;;15.07;3.47;;;;;;;;;;4986408;28;98659;-86
2023/08/15 10:38:26;;;;;;;8.95;3.38;;;;;;;;;;4981667;28;99491;-88
2023/08/15 10:40:59;;;;;;;13.55;3.72;;;;;;;;;;4984895;28;100500;-87
2023/08/15 10:43:28;;;;;;;11.88;3.80;;;;;;;;;;4989554;28;99340;-88
2023/08/15 10:45:59;;;;;;;17.80;4.18;;;;;;;;;;4986423;28;99613;-88
2023/08/15 10:48:47;;;;;;;18.95;4.15;;;;;;;;;;4984670;28;98585;-88
2023/08/15 10:51:29;;;;;;;12.02;3.42;;;;;;;;;;4982168;28;100417;-88
2023/08/15 10:53:57;;;;;;;12.27;3.70;;;;;;;;;;4992625;28;99607;-88
2023/08/15 10:56:26;;;;;;;9.15;3.40;;;;;;;;;;4989346;28;98573;-88
2023/08/15 10:58:52;;;;;;;16.08;4.32;;;;;;;;;;4985669;28;100190;-88
2023/08/15 11:01:19;;;;;;;13.00;3.63;;;;;;;;;;4986928;28;100105;-88
2023/08/15 11:03:46;;;;;;;13.52;3.60;;;;;;;;;;4985376;28;98918;-88
2023/08/15 11:06:13;;;;;;;17.77;4.55;;;;;;;;;;4986694;28;100263;-89
2023/08/15 11:08:43;;;;;;;13.13;3.33;;;;;;;;;;4987851;28;99383;-89
2023/08/15 11:11:10;;;;;;;13.65;3.70;;;;;;;;;;4988117;28;103762;-88
2023/08/15 11:13:38;;;;;;;16.75;2.80;;;;;;;;;;4991731;28;100517;-88
2023/08/15 11:16:05;;;;;;;12.88;3.25;;;;;;;;;;4980683;28;99801;-88
2023/08/15 11:18:31;;;;;;;15.85;3.35;;;;;;;;;;4987295;28;100494;-89
2023/08/15 11:20:58;;;;;;;11.40;3.20;;;;;;;;;;4992544;28;99470;-88
2023/08/15 11:23:28;;;;;;;14.23;2.92;;;;;;;;;;4987255;28;98665;-89
2023/08/15 11:26:04;;;;;;;13.18;3.58;;;;;;;;;;4983813;28;100207;-88
2023/08/15 11:28:32;;;;;;;10.85;3.13;;;;;;;;;;4991137;28;100936;-88
2023/08/15 11:30:58;;;;;;;8.82;3.13;;;;;;;;;;4986572;28;100340;-89
2023/08/15 11:33:34;;;;;;;12.15;3.42;;;;;;;;;;4995424;28;101328;-89
2023/08/15 11:36:05;;;;;;;18.52;3.83;;;;;;;;;;4982934;28;98764;-88
2023/08/15 11:38:33;;;;;;;14.75;3.55;;;;;;;;;;4995221;28;100258;-89
2023/08/15 11:41:01;;;;;;;14.25;3.70;;;;;;;;;;4997616;28;100507;-89
2023/08/15 11:43:31;;;;;;;13.25;2.88;;;;;;;;;;4992463;28;98422;-88
2023/08/15 11:46:00;;;;;;;7.95;3.03;;;;;;;;;;4987820;28;100936;-88
2023/08/15 11:48:28;;;;;;;13.13;3.55;;;;;;;;;;4987913;28;103158;-88
2023/08/15 11:50:54;;;;;;;9.25;3.13;;;;;;;;;;4994472;28;97604;-88
2023/08/15 11:53:21;;;;;;;14.60;4.05;;;;;;;;;;4994575;28;101672;-87
2023/08/15 11:55:49;;;;;;;16.38;3.88;;;;;;;;;;4984061;28;98568;-88
2023/08/15 11:58:21;;;;;;;10.68;3.50;;;;;;;;;;4987790;28;99643;-88
2023/08/15 12:00:50;;;;;;;22.27;4.20;;;;;;;;;;4993619;28;100868;-88
2023/08/15 12:03:16;;;;;;;15.18;3.70;;;;;;;;;;4991188;28;98782;-88
2023/08/15 12:05:49;;;;;;;10.70;3.30;;;;;;;;;;4993653;28;100780;-88
2023/08/15 12:08:18;;;;;;;13.45;2.83;;;;;;;;;;4996744;28;100620;-89
2023/08/15 12:10:45;;;;;;;18.60;3.28;;;;;;;;;;4994745;28;98797;-88
2023/08/15 12:13:12;;;;;;;15.77;3.80;;;;;;;;;;4996838;28;100821;-88
2023/08/15 12:15:39;;;;;;;12.60;2.70;;;;;;;;;;4979098;28;99113;-87
2023/08/15 12:18:06;;;;;;;14.80;3.80;;;;;;;;;;4984121;28;99880;-88
2023/08/15 12:20:32;;;;;;;11.77;3.83;;;;;;;;;;4992655;28;101026;-88
2023/08/15 12:22:59;;;;;;;13.38;3.10;;;;;;;;;;4985529;28;99416;-88
2023/08/15 12:25:27;;;;;;;11.65;2.97;;;;;;;;;;4984571;28;101379;-89
2023/08/15 12:27:53;;;;;;;12.23;3.30;;;;;;;;;;4990648;28;100914;-88
2023/08/15 12:30:20;;;;;;;7.50;2.17;;;;;;;;;;4989978;28;98759;-88
2023/08/15 12:32:47;;;;;;;7.55;2.72;;;;;;;;;;4986810;28;100562;-89
2023/08/15 12:35:13;;;;;;;11.85;2.58;;;;;;;;;;4986923;28;98612;-88
2023/08/15 12:37:40;;;;;;;10.70;2.17;;;;;;;;;;4986790;28;100177;-87
2023/08/15 12:40:06;;;;;;;9.50;2.50;;;;;;;;;;4986603;28;100041;-87
2023/08/15 12:42:47;;;;;;;8.85;2.50;;;;;;;;;;4987716;28;98533;-89
2023/08/15 12:45:13;;;;;;;6.93;2.22;;;;;;;;;;4990441;28;100354;-88
2023/08/15 12:47:39;;;;;;;6.68;2.15;;;;;;;;;;4989012;28;101203;-88
2023/08/15 12:50:06;;;;;;;4.18;2.08;;;;;;;;;;4986865;28;99082;-89
2023/08/15 12:52:33;;;;;;;3.38;1.70;;;;;;;;;;4994813;28;100352;-88
2023/08/15 12:55:00;;;;;;;4.78;2.03;;;;;;;;;;4987963;28;100566;-88
2023/08/15 12:57:27;;;;;;;7.05;2.00;;;;;;;;;;4989287;28;100213;-88
2023/08/15 12:59:54;;;;;;;8.23;1.90;;;;;;;;;;4989918;28;99499;-88
2023/08/15 13:02:20;;;;;;;4.43;1.70;;;;;;;;;;4986364;28;98551;-88
2023/08/15 13:04:47;;;;;;;4.00;1.60;;;;;;;;;;4997656;28;100216;-88
2023/08/15 13:07:13;;;;;;;5.13;1.52;;;;;;;;;;4993355;28;100525;-88
2023/08/15 13:09:40;;;;;;;4.97;1.30;;;;;;;;;;4988651;28;98848;-87
2023/08/15 13:12:06;;;;;;;2.38;1.20;;;;;;;;;;4989823;28;100447;-87
2023/08/15 13:14:33;;;;;;;2.55;1.40;;;;;;;;;;4993573;28;100507;-88
2023/08/15 13:17:00;;;;;;;3.58;1.45;;;;;;;;;;4984560;28;98754;-87
2023/08/15 13:19:27;;;;;;;5.28;1.05;;;;;;;;;;4991289;28;100470;-86
2023/08/15 13:21:55;;;;;;;4.47;1.40;;;;;;;;;;4988144;28;98825;-88
2023/08/15 13:24:22;;;;;;;3.35;1.35;;;;;;;;;;4986902;28;100215;-87
2023/08/15 13:26:48;;;;;;;2.25;1.17;;;;;;;;;;4986368;28;100167;-87
2023/08/15 13:29:14;;;;;;;4.07;1.23;;;;;;;;;;4988685;28;97897;-88
2023/08/15 13:31:41;;;;;;;2.53;1.30;;;;;;;;;;4987216;28;99466;-87
2023/08/15 13:34:08;;;;;;;3.83;0.93;;;;;;;;;;4989259;28;99448;-88
2023/08/15 13:36:34;;;;;;;2.42;1.10;;;;;;;;;;4988253;28;99627;-87
2023/08/15 13:39:00;;;;;;;1.85;1.00;;;;;;;;;;4989620;28;101017;-88
2023/08/15 13:41:27;;;;;;;1.00;0.82;;;;;;;;;;4989518;28;98765;-87
2023/08/15 13:43:53;;;;;;;1.73;0.98;;;;;;;;;;4991927;28;100282;-88
2023/08/15 13:46:20;;;;;;;2.17;1.00;;;;;;;;;;4993208;28;103443;-88
2023/08/15 13:48:46;;;;;;;2.45;1.17;;;;;;;;;;4987812;28;99905;-85
2023/08/15 13:51:15;;;;;;;1.60;1.02;;;;;;;;;;4988629;28;100156;-85
2023/08/15 13:53:42;;;;;;;4.00;1.10;;;;;;;;;;4993988;28;99874;-85
2023/08/15 13:56:09;;;;;;;1.67;0.88;;;;;;;;;;4995942;28;98526;-85
2023/08/15 13:58:35;;;;;;;1.52;1.00;;;;;;;;;;4994302;28;103734;-85
2023/08/15 14:01:02;;;;;;;1.48;1.00;;;;;;;;;;5001109;28;99315;-84
2023/08/15 14:03:29;;;;;;;3.35;1.15;;;;;;;;;;4993018;28;101369;-85
2023/08/15 14:05:56;;;;;;;2.30;1.00;;;;;;;;;;5001771;28;103806;-85
2023/08/15 14:08:23;;;;;;;5.20;0.70;;;;;;;;;;5005279;28;98759;-84
2023/08/15 14:10:50;;;;;;;2.38;1.40;;;;;;;;;;5008063;28;100609;-85
2023/08/15 14:13:16;;;;;;;1.83;1.27;;;;;;;;;;4996958;28;101809;-85
2023/08/15 14:15:43;;;;;;;3.20;1.20;;;;;;;;;;4992436;28;98465;-85
2023/08/15 14:18:09;;;;;;;1.70;1.30;;;;;;;;;;4993427;28;99199;-85
2023/08/15 14:20:36;;;;;;;0.80;0.80;;;;;;;;;;4990640;28;100534;-85
2023/08/15 14:23:04;;;;;;;2.53;1.17;;;;;;;;;;4986867;28;100632;-85
2023/08/15 14:25:31;;;;;;;3.90;1.23;;;;;;;;;;4986891;28;101211;-84
2023/08/15 14:27:58;;;;;;;1.25;1.10;;;;;;;;;;5001348;28;98480;-84